This is the latest recevied weather packets stored in our database for station/object K5KHP. If no packets are shown the sender has not sent any weather packets the latest 10 day(s).
| Time | Temp. | Humidity | Pressure | Rain* | Wind** | Luminosity | Snow |
|---|---|---|---|---|---|---|---|
| 1777395693 | 18.89° C | 56% | 1017.4 hPa | 0 mm | - | 517 W/m² | - |
| 1777395389 | 18.89° C | 57% | 1017.6 hPa | 0 mm | - | 490 W/m² | - |
| 1777395088 | 18.89° C | 57% | 1017.5 hPa | 0 mm | - | 470 W/m² | - |
| 1777394784 | 17.78° C | 59% | 1017.8 hPa | 0 mm | - | 464 W/m² | - |
| 1777394480 | 17.78° C | 60% | 1017.8 hPa | 0 mm | - | 427 W/m² | - |
| 1777394176 | 17.78° C | 58% | 1018 hPa | 0 mm | - | 417 W/m² | - |
| 1777393872 | 17.22° C | 61% | 1017.9 hPa | 0 mm | - | 419 W/m² | - |
| 1777393571 | 17.22° C | 61% | 1017.7 hPa | 0 mm | - | 393 W/m² | - |
| 1777393267 | 17.78° C | 60% | 1017.8 hPa | 0 mm | - | 370 W/m² | - |
| 1777392964 | 18.33° C | 60% | 1018 hPa | 0 mm | - | 333 W/m² | - |
| 1777392659 | 17.78° C | 59% | 1018.1 hPa | 0 mm | - | 319 W/m² | - |
| 1777392356 | 17.78° C | 60% | 1018.1 hPa | 0 mm | - | 91 W/m² | - |
| 1777392056 | 16.67° C | 63% | 1018.1 hPa | 0 mm | - | 289 W/m² | - |
| 1777391751 | 16.67° C | 63% | 1017.9 hPa | 0 mm | - | 274 W/m² | - |
| 1777391448 | 16.67° C | 64% | 1017.8 hPa | 0 mm | - | 261 W/m² | - |
| 1777391144 | 16.67° C | 65% | 1018 hPa | 0 mm | - | 247 W/m² | - |
| 1777390840 | 16.67° C | 66% | 1018 hPa | 0 mm | - | 230 W/m² | - |
| 1777390538 | 15.56° C | 67% | 1018 hPa | 0 mm | - | 223 W/m² | - |
| 1777390234 | 15° C | 69% | 1018.2 hPa | 0 mm | - | 216 W/m² | - |
| 1777389930 | 15° C | 70% | 1018 hPa | 0 mm | - | 202 W/m² | - |
| 1777389627 | 15° C | 70% | 1017.9 hPa | 0 mm | - | 193 W/m² | - |
| 1777389323 | 14.44° C | 71% | 1018.2 hPa | 0 mm | - | 178 W/m² | - |
| 1777389021 | 13.89° C | 71% | 1018 hPa | 0 mm | - | 159 W/m² | - |
| 1777388718 | 13.89° C | 73% | 1017.9 hPa | 0 mm | - | 155 W/m² | - |
| 1777388415 | 13.89° C | 73% | 1017.8 hPa | 0 mm | - | 135 W/m² | - |
* Rain latest hour (hover to see other rain measurements)
** Current wind speed in m/s (hover to see current wind gust speed)